sensor_id;sensor_type;location;lat;lon;timestamp;pressure;altitude;pressure_sealevel;temperature;humidity
17309;BME280;8772;42.804;23.426;2023-02-21T00:00:13;74431.31;;;-140.58;54.68
17309;BME280;8772;42.804;23.426;2023-02-21T00:02:59;74441.56;;;-140.58;54.98
17309;BME280;8772;42.804;23.426;2023-02-21T00:05:44;74425.16;;;-140.58;54.70
17309;BME280;8772;42.804;23.426;2023-02-21T00:08:28;74433.34;;;-140.58;54.58
17309;BME280;8772;42.804;23.426;2023-02-21T00:11:13;74429.25;;;-140.58;54.33
17309;BME280;8772;42.804;23.426;2023-02-21T00:13:57;74410.78;;;-140.58;54.05
17309;BME280;8772;42.804;23.426;2023-02-21T00:16:41;74408.72;;;-140.58;54.05
17309;BME280;8772;42.804;23.426;2023-02-21T00:19:27;74408.72;;;-140.58;54.00
17309;BME280;8772;42.804;23.426;2023-02-21T00:22:12;74406.69;;;-140.58;54.10
17309;BME280;8772;42.804;23.426;2023-02-21T00:24:56;74410.78;;;-140.58;54.02
17309;BME280;8772;42.804;23.426;2023-02-21T00:27:40;74412.84;;;-140.58;53.83
17309;BME280;8772;42.804;23.426;2023-02-21T00:30:25;74421.03;;;-140.58;54.17
17309;BME280;8772;42.804;23.426;2023-02-21T00:33:09;74408.72;;;-140.58;53.89
17309;BME280;8772;42.804;23.426;2023-02-21T00:35:54;74412.84;;;-140.58;53.82
17309;BME280;8772;42.804;23.426;2023-02-21T00:38:38;74408.72;;;-140.58;53.78
17309;BME280;8772;42.804;23.426;2023-02-21T00:41:23;74396.41;;;-140.58;53.47
17309;BME280;8772;42.804;23.426;2023-02-21T00:44:07;74396.41;;;-140.58;53.64
17309;BME280;8772;42.804;23.426;2023-02-21T00:46:51;74384.13;;;-140.58;53.66
17309;BME280;8772;42.804;23.426;2023-02-21T00:49:36;74380.00;;;-140.58;53.39
17309;BME280;8772;42.804;23.426;2023-02-21T00:52:22;74388.22;;;-140.58;53.89
17309;BME280;8772;42.804;23.426;2023-02-21T00:55:06;74377.94;;;-140.58;53.55
17309;BME280;8772;42.804;23.426;2023-02-21T00:57:51;74359.50;;;-140.58;53.33
17309;BME280;8772;42.804;23.426;2023-02-21T01:00:35;74361.53;;;-140.58;53.34
17309;BME280;8772;42.804;23.426;2023-02-21T01:06:23;74359.50;;;-140.58;53.40
17309;BME280;8772;42.804;23.426;2023-02-21T01:09:08;74357.44;;;-140.58;53.46
17309;BME280;8772;42.804;23.426;2023-02-21T01:11:52;74334.88;;;-140.58;53.47
17309;BME280;8772;42.804;23.426;2023-02-21T01:14:36;74359.50;;;-140.58;54.28
17309;BME280;8772;42.804;23.426;2023-02-21T01:17:21;74361.53;;;-140.58;54.37
17309;BME280;8772;42.804;23.426;2023-02-21T01:20:06;74367.69;;;-140.58;54.61
17309;BME280;8772;42.804;23.426;2023-02-21T01:22:50;74390.25;;;-140.58;55.22
17309;BME280;8772;42.804;23.426;2023-02-21T01:25:36;74367.69;;;-140.58;54.55
17309;BME280;8772;42.804;23.426;2023-02-21T01:28:20;74373.84;;;-140.58;54.58
17309;BME280;8772;42.804;23.426;2023-02-21T01:31:04;74361.53;;;-140.58;54.66
17309;BME280;8772;42.804;23.426;2023-02-21T01:33:49;74347.19;;;-140.58;54.27
17309;BME280;8772;42.804;23.426;2023-02-21T01:36:33;74347.19;;;-140.58;53.91
17309;BME280;8772;42.804;23.426;2023-02-21T01:39:17;74332.81;;;-140.58;53.93
17309;BME280;8772;42.804;23.426;2023-02-21T01:42:03;74351.28;;;-140.58;54.54
17309;BME280;8772;42.804;23.426;2023-02-21T01:44:48;74371.81;;;-140.58;54.80
17309;BME280;8772;42.804;23.426;2023-02-21T01:47:52;74361.53;;;-140.58;54.73
17309;BME280;8772;42.804;23.426;2023-02-21T01:50:37;74371.81;;;-140.58;55.44
17309;BME280;8772;42.804;23.426;2023-02-21T01:53:23;74357.44;;;-140.58;54.85
17309;BME280;8772;42.804;23.426;2023-02-21T01:56:09;74351.28;;;-140.58;54.65
17309;BME280;8772;42.804;23.426;2023-02-21T01:58:59;74345.13;;;-140.58;55.31
17309;BME280;8772;42.804;23.426;2023-02-21T02:01:46;74347.19;;;-140.58;54.97
17309;BME280;8772;42.804;23.426;2023-02-21T02:04:33;74351.28;;;-140.58;55.00
17309;BME280;8772;42.804;23.426;2023-02-21T02:07:17;74361.53;;;-140.58;55.83
17309;BME280;8772;42.804;23.426;2023-02-21T02:10:02;74369.75;;;-140.58;56.20
17309;BME280;8772;42.804;23.426;2023-02-21T02:13:03;74392.31;;;-140.58;57.49
17309;BME280;8772;42.804;23.426;2023-02-21T02:15:43;74408.72;;;-140.58;58.01
17309;BME280;8772;42.804;23.426;2023-02-21T02:18:25;74412.84;;;-140.58;58.48
17309;BME280;8772;42.804;23.426;2023-02-21T02:21:17;74412.84;;;-140.58;58.64
17309;BME280;8772;42.804;23.426;2023-02-21T02:24:04;74433.34;;;-140.58;59.56
17309;BME280;8772;42.804;23.426;2023-02-21T02:27:12;74429.25;;;-140.58;59.50
17309;BME280;8772;42.804;23.426;2023-02-21T02:30:14;74423.09;;;-140.58;59.20
17309;BME280;8772;42.804;23.426;2023-02-21T02:33:07;74419.00;;;-140.58;59.18
17309;BME280;8772;42.804;23.426;2023-02-21T02:35:41;74400.53;;;-140.58;58.46
17309;BME280;8772;42.804;23.426;2023-02-21T02:38:18;74388.22;;;-140.58;58.00
17309;BME280;8772;42.804;23.426;2023-02-21T02:40:55;74365.66;;;-140.58;56.86
17309;BME280;8772;42.804;23.426;2023-02-21T02:43:27;74355.38;;;-140.58;57.09
17309;BME280;8772;42.804;23.426;2023-02-21T02:46:01;74336.91;;;-140.58;56.75
17309;BME280;8772;42.804;23.426;2023-02-21T02:48:34;74334.88;;;-140.58;56.41
17309;BME280;8772;42.804;23.426;2023-02-21T02:51:07;74318.44;;;-140.58;55.60
17309;BME280;8772;42.804;23.426;2023-02-21T02:53:34;74287.69;;;-140.58;55.57
17309;BME280;8772;42.804;23.426;2023-02-21T02:56:03;74300.00;;;-140.58;55.10
17309;BME280;8772;42.804;23.426;2023-02-21T02:58:32;74302.03;;;-140.58;55.32
17309;BME280;8772;42.804;23.426;2023-02-21T03:01:11;74300.00;;;-140.58;55.35
17309;BME280;8772;42.804;23.426;2023-02-21T03:03:55;74293.84;;;-140.58;54.88
17309;BME280;8772;42.804;23.426;2023-02-21T03:06:32;74285.63;;;-140.58;54.48
17309;BME280;8772;42.804;23.426;2023-02-21T03:09:09;74293.84;;;-140.58;54.75
17309;BME280;8772;42.804;23.426;2023-02-21T03:11:43;74271.25;;;-140.58;53.86
17309;BME280;8772;42.804;23.426;2023-02-21T03:14:17;74265.09;;;-140.58;53.60
17309;BME280;8772;42.804;23.426;2023-02-21T03:16:46;74248.69;;;-140.58;53.10
17309;BME280;8772;42.804;23.426;2023-02-21T03:19:17;74248.69;;;-140.58;52.86
17309;BME280;8772;42.804;23.426;2023-02-21T03:21:50;74238.44;;;-140.58;52.60
17309;BME280;8772;42.804;23.426;2023-02-21T03:24:18;74228.19;;;-140.58;52.27
17309;BME280;8772;42.804;23.426;2023-02-21T03:26:48;74224.06;;;-140.58;52.05
17309;BME280;8772;42.804;23.426;2023-02-21T03:29:18;74228.19;;;-140.58;52.17
17309;BME280;8772;42.804;23.426;2023-02-21T03:31:47;74236.38;;;-140.58;52.50
17309;BME280;8772;42.804;23.426;2023-02-21T03:34:15;74240.50;;;-140.58;52.67
17309;BME280;8772;42.804;23.426;2023-02-21T03:36:43;74228.19;;;-140.58;52.03
17309;BME280;8772;42.804;23.426;2023-02-21T03:39:12;74211.75;;;-140.58;51.29
17309;BME280;8772;42.804;23.426;2023-02-21T03:41:39;74222.03;;;-140.58;51.41
17309;BME280;8772;42.804;23.426;2023-02-21T03:44:06;74234.34;;;-140.58;52.33
17309;BME280;8772;42.804;23.426;2023-02-21T03:46:33;74240.50;;;-140.58;52.74
17309;BME280;8772;42.804;23.426;2023-02-21T03:49:00;74236.38;;;-140.58;52.28
17309;BME280;8772;42.804;23.426;2023-02-21T03:51:27;74258.94;;;-140.58;52.55
17309;BME280;8772;42.804;23.426;2023-02-21T03:53:53;74250.75;;;-140.58;52.36
17309;BME280;8772;42.804;23.426;2023-02-21T03:56:22;74265.09;;;-140.58;52.40
17309;BME280;8772;42.804;23.426;2023-02-21T03:58:48;74265.09;;;-140.58;52.73
17309;BME280;8772;42.804;23.426;2023-02-21T04:01:15;74269.22;;;-140.58;52.88
17309;BME280;8772;42.804;23.426;2023-02-21T04:03:42;74302.03;;;-140.58;53.62
17309;BME280;8772;42.804;23.426;2023-02-21T04:06:09;74304.09;;;-140.58;53.34
17309;BME280;8772;42.804;23.426;2023-02-21T04:08:36;74320.50;;;-140.58;53.75
17309;BME280;8772;42.804;23.426;2023-02-21T04:11:03;74310.25;;;-140.58;53.63
17309;BME280;8772;42.804;23.426;2023-02-21T04:13:31;74310.25;;;-140.58;53.62
17309;BME280;8772;42.804;23.426;2023-02-21T04:15:58;74314.34;;;-140.58;53.72
17309;BME280;8772;42.804;23.426;2023-02-21T04:18:25;74295.88;;;-140.58;53.11
17309;BME280;8772;42.804;23.426;2023-02-21T04:20:52;74283.56;;;-140.58;52.91
17309;BME280;8772;42.804;23.426;2023-02-21T04:23:20;74295.88;;;-140.58;53.02
17309;BME280;8772;42.804;23.426;2023-02-21T04:25:47;74295.88;;;-140.58;53.04
17309;BME280;8772;42.804;23.426;2023-02-21T04:28:14;74289.72;;;-140.58;52.65
17309;BME280;8772;42.804;23.426;2023-02-21T04:30:43;74287.69;;;-140.58;52.54
17309;BME280;8772;42.804;23.426;2023-02-21T04:33:09;74285.63;;;-140.58;52.75
17309;BME280;8772;42.804;23.426;2023-02-21T04:35:36;74285.63;;;-140.58;52.24
17309;BME280;8772;42.804;23.426;2023-02-21T04:38:03;74279.47;;;-140.58;52.39
17309;BME280;8772;42.804;23.426;2023-02-21T04:40:30;74269.22;;;-140.58;52.19
17309;BME280;8772;42.804;23.426;2023-02-21T04:42:57;74273.31;;;-140.58;51.86
17309;BME280;8772;42.804;23.426;2023-02-21T04:45:24;74269.22;;;-140.58;52.03
17309;BME280;8772;42.804;23.426;2023-02-21T04:47:52;74265.09;;;-140.58;51.50
17309;BME280;8772;42.804;23.426;2023-02-21T04:50:19;74256.91;;;-140.58;51.33
17309;BME280;8772;42.804;23.426;2023-02-21T04:52:46;74248.69;;;-140.58;50.90
17309;BME280;8772;42.804;23.426;2023-02-21T04:55:14;74250.75;;;-140.58;50.75
17309;BME280;8772;42.804;23.426;2023-02-21T04:57:40;74248.69;;;-140.58;50.73
17309;BME280;8772;42.804;23.426;2023-02-21T05:00:09;74244.59;;;-140.58;50.91
17309;BME280;8772;42.804;23.426;2023-02-21T05:02:37;74252.81;;;-140.58;51.07
17309;BME280;8772;42.804;23.426;2023-02-21T05:05:05;74238.44;;;-140.58;50.98
17309;BME280;8772;42.804;23.426;2023-02-21T05:07:32;74232.28;;;-140.58;50.79
17309;BME280;8772;42.804;23.426;2023-02-21T05:09:59;74240.50;;;-140.58;50.72
17309;BME280;8772;42.804;23.426;2023-02-21T05:12:26;74230.22;;;-140.58;50.70
17309;BME280;8772;42.804;23.426;2023-02-21T05:14:52;74236.38;;;-140.58;50.83
17309;BME280;8772;42.804;23.426;2023-02-21T05:17:19;74238.44;;;-140.58;51.01
17309;BME280;8772;42.804;23.426;2023-02-21T05:19:46;74228.19;;;-140.58;50.61
17309;BME280;8772;42.804;23.426;2023-02-21T05:22:15;74232.28;;;-140.58;50.47
17309;BME280;8772;42.804;23.426;2023-02-21T05:24:45;74230.22;;;-140.58;50.66
17309;BME280;8772;42.804;23.426;2023-02-21T05:27:13;74236.38;;;-140.58;50.71
17309;BME280;8772;42.804;23.426;2023-02-21T05:29:40;74252.81;;;-140.58;51.26
17309;BME280;8772;42.804;23.426;2023-02-21T05:32:07;74248.69;;;-140.58;50.84
17309;BME280;8772;42.804;23.426;2023-02-21T05:34:34;74265.09;;;-140.58;51.52
17309;BME280;8772;42.804;23.426;2023-02-21T05:37:01;74254.84;;;-140.58;51.21
17309;BME280;8772;42.804;23.426;2023-02-21T05:39:29;74256.91;;;-140.58;51.40
17309;BME280;8772;42.804;23.426;2023-02-21T05:41:56;74252.81;;;-140.58;51.23
17309;BME280;8772;42.804;23.426;2023-02-21T05:44:23;74271.25;;;-140.58;51.68
17309;BME280;8772;42.804;23.426;2023-02-21T05:46:49;74263.06;;;-140.58;51.49
17309;BME280;8772;42.804;23.426;2023-02-21T05:49:16;74273.31;;;-140.58;52.02
17309;BME280;8772;42.804;23.426;2023-02-21T05:51:43;74254.84;;;-140.58;51.72
17309;BME280;8772;42.804;23.426;2023-02-21T05:54:13;74250.75;;;-140.58;51.62
17309;BME280;8772;42.804;23.426;2023-02-21T05:56:45;74240.50;;;-140.58;51.09
17309;BME280;8772;42.804;23.426;2023-02-21T05:59:13;74261.00;;;-140.58;51.90
17309;BME280;8772;42.804;23.426;2023-02-21T06:01:40;74258.94;;;-140.58;51.61
17309;BME280;8772;42.804;23.426;2023-02-21T06:04:07;74258.94;;;-140.58;51.74
17309;BME280;8772;42.804;23.426;2023-02-21T06:06:34;74232.28;;;-140.58;51.01
17309;BME280;8772;42.804;23.426;2023-02-21T06:09:02;74219.97;;;-140.58;50.58
17309;BME280;8772;42.804;23.426;2023-02-21T06:11:31;74199.47;;;-140.58;50.21
17309;BME280;8772;42.804;23.426;2023-02-21T06:14:01;74183.03;;;-140.58;50.32
17309;BME280;8772;42.804;23.426;2023-02-21T06:16:31;74174.84;;;-140.58;49.99
17309;BME280;8772;42.804;23.426;2023-02-21T06:18:59;74164.56;;;-140.58;49.49
17309;BME280;8772;42.804;23.426;2023-02-21T06:21:27;74152.28;;;-140.58;49.14
17309;BME280;8772;42.804;23.426;2023-02-21T06:23:54;74133.81;;;-140.58;49.07
17309;BME280;8772;42.804;23.426;2023-02-21T06:26:21;74133.81;;;-140.58;48.82
17309;BME280;8772;42.804;23.426;2023-02-21T06:28:49;74121.50;;;-140.58;48.92
17309;BME280;8772;42.804;23.426;2023-02-21T06:31:19;74129.69;;;-140.58;49.04
17309;BME280;8772;42.804;23.426;2023-02-21T06:33:46;74117.38;;;-140.58;48.75
17309;BME280;8772;42.804;23.426;2023-02-21T06:36:15;74109.19;;;-140.58;48.36
17309;BME280;8772;42.804;23.426;2023-02-21T06:38:43;74105.09;;;-140.58;47.96
17309;BME280;8772;42.804;23.426;2023-02-21T06:41:10;74094.81;;;-140.58;47.88
17309;BME280;8772;42.804;23.426;2023-02-21T06:43:37;74084.56;;;-140.58;47.98
17309;BME280;8772;42.804;23.426;2023-02-21T06:46:04;74080.47;;;-140.58;47.70
17309;BME280;8772;42.804;23.426;2023-02-21T06:48:32;74072.25;;;-140.58;47.41
17309;BME280;8772;42.804;23.426;2023-02-21T06:50:59;74078.41;;;-140.58;47.16
17309;BME280;8772;42.804;23.426;2023-02-21T06:53:26;74076.34;;;-140.58;47.88
17309;BME280;8772;42.804;23.426;2023-02-21T06:55:53;74068.16;;;-140.58;47.97
17309;BME280;8772;42.804;23.426;2023-02-21T06:58:20;74068.16;;;-140.58;47.48
17309;BME280;8772;42.804;23.426;2023-02-21T07:00:46;74068.16;;;-140.58;47.77
17309;BME280;8772;42.804;23.426;2023-02-21T07:03:13;74059.94;;;-140.58;47.01
17309;BME280;8772;42.804;23.426;2023-02-21T07:05:41;74045.59;;;-140.58;47.29
17309;BME280;8772;42.804;23.426;2023-02-21T07:08:08;74033.28;;;-140.58;46.85
17309;BME280;8772;42.804;23.426;2023-02-21T07:10:35;74031.22;;;-140.58;46.29
17309;BME280;8772;42.804;23.426;2023-02-21T07:13:02;74023.00;;;-140.58;46.51
17309;BME280;8772;42.804;23.426;2023-02-21T07:15:29;74018.91;;;-140.58;46.42
17309;BME280;8772;42.804;23.426;2023-02-21T07:17:55;74006.59;;;-140.58;45.73
17309;BME280;8772;42.804;23.426;2023-02-21T07:20:22;74006.59;;;-140.58;46.03
17309;BME280;8772;42.804;23.426;2023-02-21T07:22:51;73998.41;;;-140.58;45.80
17309;BME280;8772;42.804;23.426;2023-02-21T07:25:20;73977.88;;;-140.58;45.63
17309;BME280;8772;42.804;23.426;2023-02-21T07:27:47;73963.53;;;-140.58;45.34
17309;BME280;8772;42.804;23.426;2023-02-21T07:30:14;73957.38;;;-140.58;45.41
17309;BME280;8772;42.804;23.426;2023-02-21T07:32:41;73934.81;;;-140.58;44.27
17309;BME280;8772;42.804;23.426;2023-02-21T07:35:08;73912.22;;;-140.58;44.37
17309;BME280;8772;42.804;23.426;2023-02-21T07:37:35;73893.78;;;-140.58;44.74
17309;BME280;8772;42.804;23.426;2023-02-21T07:40:04;73875.31;;;-140.58;44.10
17309;BME280;8772;42.804;23.426;2023-02-21T07:42:32;73865.03;;;-140.58;43.79
17309;BME280;8772;42.804;23.426;2023-02-21T07:44:59;73850.69;;;-140.58;43.54
17309;BME280;8772;42.804;23.426;2023-02-21T07:47:26;73834.28;;;-140.58;43.22
17309;BME280;8772;42.804;23.426;2023-02-21T07:49:54;73826.06;;;-140.58;42.63
17309;BME280;8772;42.804;23.426;2023-02-21T07:52:21;73807.59;;;-140.58;42.05
17309;BME280;8772;42.804;23.426;2023-02-21T07:54:48;73791.19;;;-140.58;42.02
17309;BME280;8772;42.804;23.426;2023-02-21T07:57:17;73776.84;;;-140.58;42.44
17309;BME280;8772;42.804;23.426;2023-02-21T07:59:44;73764.53;;;-140.58;41.60
17309;BME280;8772;42.804;23.426;2023-02-21T08:02:11;73764.53;;;-140.58;40.89
17309;BME280;8772;42.804;23.426;2023-02-21T08:04:38;73772.72;;;-140.58;40.85
17309;BME280;8772;42.804;23.426;2023-02-21T08:07:06;73774.78;;;-140.58;41.38
17309;BME280;8772;42.804;23.426;2023-02-21T08:09:34;73774.78;;;-140.58;41.54
17309;BME280;8772;42.804;23.426;2023-02-21T08:12:01;73768.63;;;-140.58;41.13
17309;BME280;8772;42.804;23.426;2023-02-21T08:14:29;73756.31;;;-140.58;41.05
17309;BME280;8772;42.804;23.426;2023-02-21T08:16:56;73752.22;;;-140.58;41.01
17309;BME280;8772;42.804;23.426;2023-02-21T08:19:23;73754.28;;;-140.58;40.93
17309;BME280;8772;42.804;23.426;2023-02-21T08:21:50;73752.22;;;-140.58;41.32
17309;BME280;8772;42.804;23.426;2023-02-21T08:24:17;73760.44;;;-140.58;40.63
17309;BME280;8772;42.804;23.426;2023-02-21T08:26:45;73756.31;;;-140.58;40.96
17309;BME280;8772;42.804;23.426;2023-02-21T08:29:12;73739.91;;;-140.58;40.24
17309;BME280;8772;42.804;23.426;2023-02-21T08:31:41;73752.22;;;-140.58;40.63
17309;BME280;8772;42.804;23.426;2023-02-21T08:34:08;73750.16;;;-140.58;40.53
17309;BME280;8772;42.804;23.426;2023-02-21T08:36:38;73752.22;;;-140.58;40.74
17309;BME280;8772;42.804;23.426;2023-02-21T08:39:07;73762.47;;;-140.58;40.60
17309;BME280;8772;42.804;23.426;2023-02-21T08:41:35;73752.22;;;-140.58;40.83
17309;BME280;8772;42.804;23.426;2023-02-21T08:44:03;73752.22;;;-140.58;40.59
17309;BME280;8772;42.804;23.426;2023-02-21T08:46:30;73725.56;;;-140.58;40.83
17309;BME280;8772;42.804;23.426;2023-02-21T08:48:58;73746.06;;;-140.58;40.34
17309;BME280;8772;42.804;23.426;2023-02-21T08:51:25;73735.81;;;-140.58;40.54
17309;BME280;8772;42.804;23.426;2023-02-21T08:53:52;73711.19;;;-140.58;40.30
17309;BME280;8772;42.804;23.426;2023-02-21T08:56:19;73684.53;;;-140.58;39.63
17309;BME280;8772;42.804;23.426;2023-02-21T08:58:46;73682.47;;;-140.58;39.27
17309;BME280;8772;42.804;23.426;2023-02-21T09:01:13;73666.06;;;-140.58;38.87
17309;BME280;8772;42.804;23.426;2023-02-21T09:03:40;73666.06;;;-140.58;39.25
17309;BME280;8772;42.804;23.426;2023-02-21T09:06:09;73645.53;;;-140.58;39.20
17309;BME280;8772;42.804;23.426;2023-02-21T09:08:36;73631.19;;;-140.58;38.78
17309;BME280;8772;42.804;23.426;2023-02-21T09:11:03;73604.53;;;-140.58;39.22
17309;BME280;8772;42.804;23.426;2023-02-21T09:13:30;73579.91;;;-140.58;38.21
17309;BME280;8772;42.804;23.426;2023-02-21T09:15:58;73551.19;;;-140.58;37.75
17309;BME280;8772;42.804;23.426;2023-02-21T09:18:26;73506.06;;;-140.58;37.40
17309;BME280;8772;42.804;23.426;2023-02-21T09:20:53;73469.13;;;-140.58;37.01
17309;BME280;8772;42.804;23.426;2023-02-21T09:23:24;73419.91;;;-140.58;36.38
17309;BME280;8772;42.804;23.426;2023-02-21T09:25:51;73378.88;;;-140.58;36.50
17309;BME280;8772;42.804;23.426;2023-02-21T09:28:18;73362.47;;;-140.58;35.05
17309;BME280;8772;42.804;23.426;2023-02-21T09:30:45;73341.97;;;-140.58;35.11
17309;BME280;8772;42.804;23.426;2023-02-21T09:33:13;73325.56;;;-140.58;35.41
17309;BME280;8772;42.804;23.426;2023-02-21T09:35:40;73288.63;;;-140.58;35.13
17309;BME280;8772;42.804;23.426;2023-02-21T09:38:07;73296.84;;;-140.58;35.34
17309;BME280;8772;42.804;23.426;2023-02-21T09:40:40;73253.75;;;-140.58;34.88
17309;BME280;8772;42.804;23.426;2023-02-21T09:43:12;73216.84;;;-140.58;34.02
17309;BME280;8772;42.804;23.426;2023-02-21T09:45:41;73210.69;;;-140.58;33.92
17309;BME280;8772;42.804;23.426;2023-02-21T09:48:11;73194.28;;;-140.58;33.63
17309;BME280;8772;42.804;23.426;2023-02-21T09:50:42;73202.47;;;-140.58;33.50
17309;BME280;8772;42.804;23.426;2023-02-21T09:53:12;73223.00;;;-140.58;33.44
17309;BME280;8772;42.804;23.426;2023-02-21T09:55:42;73235.31;;;-140.58;33.72
17309;BME280;8772;42.804;23.426;2023-02-21T09:58:11;73251.72;;;-140.58;33.90
17309;BME280;8772;42.804;23.426;2023-02-21T10:00:38;73264.03;;;-140.58;34.05
17309;BME280;8772;42.804;23.426;2023-02-21T10:03:16;73255.81;;;-140.58;34.34
17309;BME280;8772;42.804;23.426;2023-02-21T10:05:56;73235.31;;;-140.58;34.15
17309;BME280;8772;42.804;23.426;2023-02-21T10:08:30;73216.84;;;-140.58;33.77
17309;BME280;8772;42.804;23.426;2023-02-21T10:11:18;73208.63;;;-140.58;33.56
17309;BME280;8772;42.804;23.426;2023-02-21T10:13:53;73198.38;;;-140.58;33.54
17309;BME280;8772;42.804;23.426;2023-02-21T10:16:27;73177.88;;;-140.58;33.40
17309;BME280;8772;42.804;23.426;2023-02-21T10:19:02;73169.66;;;-140.58;33.32
17309;BME280;8772;42.804;23.426;2023-02-21T10:21:33;73153.25;;;-140.58;33.55
17309;BME280;8772;42.804;23.426;2023-02-21T10:24:02;73132.75;;;-140.58;33.20
17309;BME280;8772;42.804;23.426;2023-02-21T10:26:37;73128.66;;;-140.58;33.26
17309;BME280;8772;42.804;23.426;2023-02-21T10:29:15;73091.72;;;-140.58;32.89
17309;BME280;8772;42.804;23.426;2023-02-21T10:31:44;73067.13;;;-140.58;32.32
17309;BME280;8772;42.804;23.426;2023-02-21T10:34:21;73046.59;;;-140.58;32.51
17309;BME280;8772;42.804;23.426;2023-02-21T10:36:49;73042.50;;;-140.58;32.04
17309;BME280;8772;42.804;23.426;2023-02-21T10:39:18;73032.25;;;-140.58;32.11
17309;BME280;8772;42.804;23.426;2023-02-21T10:41:48;73015.84;;;-140.58;32.03
17309;BME280;8772;42.804;23.426;2023-02-21T10:44:19;72993.28;;;-140.58;32.26
17309;BME280;8772;42.804;23.426;2023-02-21T10:46:59;72968.66;;;-140.58;31.86
17309;BME280;8772;42.804;23.426;2023-02-21T10:49:29;72952.25;;;-140.58;30.82
17309;BME280;8772;42.804;23.426;2023-02-21T10:52:08;72948.16;;;-140.58;31.07
17309;BME280;8772;42.804;23.426;2023-02-21T10:54:36;72950.22;;;-140.58;30.96
17309;BME280;8772;42.804;23.426;2023-02-21T10:57:07;72931.75;;;-140.58;31.12
17309;BME280;8772;42.804;23.426;2023-02-21T10:59:39;72919.44;;;-140.58;30.55
17309;BME280;8772;42.804;23.426;2023-02-21T11:02:25;72894.84;;;-140.58;30.62
17309;BME280;8772;42.804;23.426;2023-02-21T11:04:54;72894.84;;;-140.58;30.68
17309;BME280;8772;42.804;23.426;2023-02-21T11:07:22;72874.31;;;-140.58;29.92
17309;BME280;8772;42.804;23.426;2023-02-21T11:09:49;72866.13;;;-140.58;29.91
17309;BME280;8772;42.804;23.426;2023-02-21T11:12:21;72849.72;;;-140.58;30.02
17309;BME280;8772;42.804;23.426;2023-02-21T11:15:19;72845.63;;;-140.58;30.14
17309;BME280;8772;42.804;23.426;2023-02-21T11:18:02;72831.25;;;-140.58;29.56
17309;BME280;8772;42.804;23.426;2023-02-21T11:20:29;72825.09;;;-140.58;30.06
17309;BME280;8772;42.804;23.426;2023-02-21T11:22:57;72804.59;;;-140.58;29.52
17309;BME280;8772;42.804;23.426;2023-02-21T11:25:25;72804.59;;;-140.58;29.57
17309;BME280;8772;42.804;23.426;2023-02-21T11:28:04;72788.19;;;-140.58;30.16
17309;BME280;8772;42.804;23.426;2023-02-21T11:30:35;72773.84;;;-140.58;29.68
17309;BME280;8772;42.804;23.426;2023-02-21T11:33:04;72738.97;;;-140.58;29.74
17309;BME280;8772;42.804;23.426;2023-02-21T11:35:34;72759.47;;;-140.58;28.94
17309;BME280;8772;42.804;23.426;2023-02-21T11:38:03;72734.88;;;-140.58;29.42
17309;BME280;8772;42.804;23.426;2023-02-21T11:40:33;72720.50;;;-140.58;29.05
17309;BME280;8772;42.804;23.426;2023-02-21T11:43:23;72695.91;;;-140.58;29.18
17309;BME280;8772;42.804;23.426;2023-02-21T11:46:07;72700.00;;;-140.58;28.60
17309;BME280;8772;42.804;23.426;2023-02-21T11:48:41;72681.53;;;-140.58;29.12
17309;BME280;8772;42.804;23.426;2023-02-21T11:51:20;72679.50;;;-140.58;29.37
17309;BME280;8772;42.804;23.426;2023-02-21T11:53:51;72648.72;;;-140.58;28.76
17309;BME280;8772;42.804;23.426;2023-02-21T11:56:27;72644.63;;;-140.58;28.39
17309;BME280;8772;42.804;23.426;2023-02-21T11:59:02;72644.63;;;-140.58;28.04
17309;BME280;8772;42.804;23.426;2023-02-21T12:01:36;72632.34;;;-140.58;28.66
17309;BME280;8772;42.804;23.426;2023-02-21T12:04:17;72615.94;;;-140.58;27.95
17309;BME280;8772;42.804;23.426;2023-02-21T12:06:50;72611.81;;;-140.58;28.12
17309;BME280;8772;42.804;23.426;2023-02-21T12:09:24;72620.03;;;-140.58;27.77
17309;BME280;8772;42.804;23.426;2023-02-21T12:12:02;72620.03;;;-140.58;27.53
17309;BME280;8772;42.804;23.426;2023-02-21T12:14:51;72607.72;;;-140.58;27.71
17309;BME280;8772;42.804;23.426;2023-02-21T12:17:39;72597.47;;;-140.58;28.02
17309;BME280;8772;42.804;23.426;2023-02-21T12:20:23;72576.97;;;-140.58;27.41
17309;BME280;8772;42.804;23.426;2023-02-21T12:22:58;72566.72;;;-140.58;26.89
17309;BME280;8772;42.804;23.426;2023-02-21T12:25:32;72558.50;;;-140.58;25.62
17309;BME280;8772;42.804;23.426;2023-02-21T12:28:12;72566.72;;;-140.58;25.37
17309;BME280;8772;42.804;23.426;2023-02-21T12:31:02;72562.59;;;-140.58;24.94
17309;BME280;8772;42.804;23.426;2023-02-21T12:33:41;72579.00;;;-140.58;25.40
17309;BME280;8772;42.804;23.426;2023-02-21T12:36:25;72570.81;;;-140.58;25.69
17309;BME280;8772;42.804;23.426;2023-02-21T12:39:15;72583.13;;;-140.58;25.28
17309;BME280;8772;42.804;23.426;2023-02-21T12:42:01;72595.41;;;-140.58;25.13
17309;BME280;8772;42.804;23.426;2023-02-21T12:44:37;72572.84;;;-140.58;25.31
17309;BME280;8772;42.804;23.426;2023-02-21T12:47:14;72558.50;;;-140.58;25.30
17309;BME280;8772;42.804;23.426;2023-02-21T12:49:45;72540.03;;;-140.58;25.83
17309;BME280;8772;42.804;23.426;2023-02-21T12:52:22;72546.19;;;-140.58;25.04
17309;BME280;8772;42.804;23.426;2023-02-21T12:54:57;72564.66;;;-140.58;25.42
17309;BME280;8772;42.804;23.426;2023-02-21T12:57:32;72554.41;;;-140.58;25.23
17309;BME280;8772;42.804;23.426;2023-02-21T13:00:05;72533.91;;;-140.58;25.47
17309;BME280;8772;42.804;23.426;2023-02-21T13:02:51;72538.00;;;-140.58;25.39
17309;BME280;8772;42.804;23.426;2023-02-21T13:05:26;72550.31;;;-140.58;25.08
17309;BME280;8772;42.804;23.426;2023-02-21T13:07:59;72529.78;;;-140.58;25.42
17309;BME280;8772;42.804;23.426;2023-02-21T13:10:34;72505.19;;;-140.58;25.35
17309;BME280;8772;42.804;23.426;2023-02-21T13:13:08;72488.78;;;-140.58;25.55